Time;durP1;ratioP1;P1;durP2;ratioP2;P2;SDS_P1;SDS_P2;PMS_P1;PMS_P2;Temp;Humidity;BMP_temperature;BMP_pressure;BME280_temperature;BME280_humidity;BME280_pressure;Samples;Min_cycle;Max_cycle;Signal;HPM_P1;HPM_P2
2021/11/13 00:01:43;;;;;;;816.70;736.83;;;19.80;93.30;;;;;;5069390;28;20184;-71
2021/11/13 00:04:11;;;;;;;807.90;726.63;;;19.90;93.00;;;;;;5072206;28;20179;-68
2021/11/13 00:06:38;;;;;;;809.97;728.40;;;19.70;92.90;;;;;;5065639;28;20574;-70
2021/11/13 00:09:06;;;;;;;815.70;734.33;;;20.10;92.30;;;;;;5066120;28;20558;-70
2021/11/13 00:11:34;;;;;;;819.33;736.80;;;20.20;92.20;;;;;;5072135;28;20183;-70
2021/11/13 00:14:03;;;;;;;833.77;749.03;;;20.30;92.00;;;;;;5069203;28;20187;-69
2021/11/13 00:16:34;;;;;;;834.83;752.50;;;20.60;92.70;;;;;;5070687;28;20244;-72
2021/11/13 00:19:01;;;;;;;844.67;761.63;;;20.70;92.00;;;;;;5072623;28;20202;-71
2021/11/13 00:21:29;;;;;;;843.33;762.73;;;20.80;91.50;;;;;;5072986;28;20199;-73
2021/11/13 00:23:57;;;;;;;840.10;759.97;;;20.70;90.80;;;;;;5069995;28;20180;-71
2021/11/13 00:26:24;;;;;;;854.23;774.60;;;20.90;90.80;;;;;;5070047;28;20178;-69
2021/11/13 00:28:51;;;;;;;873.30;794.97;;;21.20;91.00;;;;;;5071800;28;20645;-70
2021/11/13 00:31:19;;;;;;;867.97;788.53;;;21.00;90.40;;;;;;5070942;28;20175;-72
2021/11/13 00:33:46;;;;;;;870.20;791.50;;;20.90;91.10;;;;;;5072228;28;20554;-70
2021/11/13 00:36:14;;;;;;;862.90;782.47;;;20.90;90.50;;;;;;5071674;28;20171;-68
2021/11/13 00:38:41;;;;;;;863.90;781.93;;;20.60;90.60;;;;;;5071412;28;20228;-72
2021/11/13 00:41:08;;;;;;;884.40;802.87;;;20.40;91.00;;;;;;5066423;28;20656;-71
2021/11/13 00:43:36;;;;;;;858.90;780.47;;;20.40;91.40;;;;;;5060012;28;20175;-70
2021/11/13 00:46:04;;;;;;;856.90;778.67;;;20.50;91.20;;;;;;5071573;28;20217;-70
2021/11/13 00:48:31;;;;;;;847.40;767.53;;;20.30;91.30;;;;;;5073127;28;20604;-70
2021/11/13 00:50:59;;;;;;;858.80;779.87;;;20.30;91.80;;;;;;5071765;28;20179;-73
2021/11/13 00:53:26;;;;;;;817.70;740.60;;;19.80;91.90;;;;;;5071556;28;20244;-69
2021/11/13 00:55:54;;;;;;;844.03;766.60;;;19.50;92.10;;;;;;5071719;28;20583;-70
2021/11/13 00:58:21;;;;;;;828.87;753.27;;;19.70;92.60;;;;;;5071507;28;20175;-68
2021/11/13 01:00:49;;;;;;;814.23;738.73;;;20.00;92.40;;;;;;5071093;28;20187;-71
2021/11/13 01:03:16;;;;;;;830.07;757.37;;;20.00;92.30;;;;;;5061392;28;20168;-72
2021/11/13 01:05:44;;;;;;;821.23;748.47;;;19.90;92.00;;;;;;5071420;28;20531;-71
2021/11/13 01:08:11;;;;;;;798.10;722.77;;;19.60;92.20;;;;;;5067659;28;20642;-67
2021/11/13 01:10:39;;;;;;;793.37;719.77;;;19.60;92.30;;;;;;5066891;28;20706;-73
2021/11/13 01:13:07;;;;;;;788.53;716.73;;;20.00;92.10;;;;;;5075560;28;20226;-74
2021/11/13 01:15:34;;;;;;;807.27;731.10;;;20.10;92.20;;;;;;5075478;28;20171;-70
2021/11/13 01:18:02;;;;;;;806.03;728.00;;;20.20;91.90;;;;;;5076161;28;20167;-71
2021/11/13 01:20:30;;;;;;;831.70;754.90;;;20.40;92.30;;;;;;5075606;28;20183;-70
2021/11/13 01:22:58;;;;;;;825.00;747.53;;;20.50;92.00;;;;;;5076075;28;20235;-69
2021/11/13 01:25:27;;;;;;;829.13;749.43;;;20.70;92.10;;;;;;5075890;28;20255;-73
2021/11/13 01:27:54;;;;;;;852.70;771.33;;;20.20;91.70;;;;;;5075879;28;20348;-72
2021/11/13 01:30:22;;;;;;;833.57;754.53;;;19.90;92.10;;;;;;5074508;28;20179;-69
2021/11/13 01:32:49;;;;;;;855.80;772.20;;;20.00;92.00;;;;;;5075607;28;20175;-74
2021/11/13 01:35:18;;;;;;;833.93;752.63;;;20.20;92.40;;;;;;5074466;28;20287;-71
2021/11/13 01:37:46;;;;;;;825.17;740.67;;;20.30;92.00;;;;;;5075688;28;20171;-71
2021/11/13 01:40:17;;;;;;;827.33;744.73;;;20.40;91.90;;;;;;5071357;28;20186;-71
2021/11/13 01:42:45;;;;;;;852.67;767.50;;;20.30;91.70;;;;;;5073074;28;20187;-70
2021/11/13 01:45:14;;;;;;;850.17;764.30;;;20.30;91.20;;;;;;5061067;28;20179;-70
2021/11/13 01:47:41;;;;;;;866.23;779.30;;;20.40;91.10;;;;;;5070499;28;20256;-69
2021/11/13 01:50:12;;;;;;;860.43;775.63;;;20.60;91.50;;;;;;5071515;28;20546;-70
2021/11/13 01:52:39;;;;;;;853.07;768.90;;;20.90;91.60;;;;;;5073332;28;20182;-71
2021/11/13 01:55:07;;;;;;;852.30;769.60;;;20.90;91.70;;;;;;5075230;28;20164;-73
2021/11/13 01:57:44;;;;;;;858.57;773.37;;;20.90;91.20;;;;;;5073738;28;20183;-71
2021/11/13 02:00:15;;;;;;;871.53;786.77;;;20.70;91.00;;;;;;5075151;28;20174;-72
2021/11/13 02:02:43;;;;;;;852.13;769.83;;;20.80;91.50;;;;;;5063590;28;20184;-74
2021/11/13 02:05:10;;;;;;;862.33;780.57;;;20.90;91.20;;;;;;5055622;28;20217;-69
2021/11/13 02:07:38;;;;;;;860.63;779.23;;;20.90;90.40;;;;;;5066426;28;20309;-74
2021/11/13 02:10:09;;;;;;;889.10;805.60;;;20.60;90.90;;;;;;5075534;28;20591;-70
2021/11/13 02:12:37;;;;;;;862.23;780.53;;;20.50;91.40;;;;;;5075226;28;20223;-70
2021/11/13 02:15:05;;;;;;;878.17;797.80;;;20.80;91.20;;;;;;5074874;28;20179;-72
2021/11/13 02:17:33;;;;;;;884.47;802.47;;;21.40;90.40;;;;;;5075379;28;20164;-71
2021/11/13 02:20:31;;;;;;;885.93;805.23;;;21.10;90.20;;;;;;5075239;28;20251;-70
2021/11/13 02:23:06;;;;;;;879.87;796.70;;;21.20;90.40;;;;;;5073147;28;20198;-71
2021/11/13 02:25:34;;;;;;;886.20;799.33;;;21.00;90.20;;;;;;5074816;28;20167;-73
2021/11/13 02:28:03;;;;;;;855.97;771.77;;;20.90;90.10;;;;;;5074778;28;20213;-72
2021/11/13 02:30:30;;;;;;;880.50;793.53;;;20.80;90.30;;;;;;5075004;28;20588;-70
2021/11/13 02:32:58;;;;;;;862.30;779.10;;;20.80;90.60;;;;;;5074979;28;20179;-69
2021/11/13 02:35:31;;;;;;;863.47;777.20;;;20.80;90.60;;;;;;5075258;28;20174;-70
2021/11/13 02:37:59;;;;;;;868.60;784.10;;;20.70;90.70;;;;;;5074817;28;20230;-72
2021/11/13 02:40:28;;;;;;;847.70;761.20;;;20.40;91.00;;;;;;5074990;28;20183;-70
2021/11/13 02:43:00;;;;;;;861.30;770.93;;;20.40;91.50;;;;;;5074661;28;20183;-70
2021/11/13 02:45:27;;;;;;;856.47;768.90;;;20.40;91.40;;;;;;5074701;28;20258;-73
2021/11/13 02:47:55;;;;;;;854.43;769.23;;;20.40;91.50;;;;;;5072940;28;20250;-70
2021/11/13 02:50:23;;;;;;;846.37;762.10;;;20.70;91.30;;;;;;5074531;28;20175;-71
2021/11/13 02:52:56;;;;;;;844.83;756.23;;;20.90;90.50;;;;;;5074520;28;20217;-71
2021/11/13 02:55:24;;;;;;;833.30;750.80;;;20.80;89.30;;;;;;5074824;28;20274;-74
2021/11/13 02:57:52;;;;;;;853.53;770.27;;;21.00;90.10;;;;;;5074486;28;20242;-70
2021/11/13 03:00:23;;;;;;;864.33;784.67;;;21.10;90.20;;;;;;5074524;28;20179;-70
2021/11/13 03:02:51;;;;;;;891.57;807.80;;;21.70;88.90;;;;;;5072545;28;20179;-70
2021/11/13 03:05:21;;;;;;;915.53;833.23;;;21.50;89.30;;;;;;5057639;28;20184;-74
2021/11/13 03:07:48;;;;;;;894.53;814.63;;;22.30;89.20;;;;;;5066757;28;20310;-72
2021/11/13 03:10:17;;;;;;;894.43;815.73;;;22.70;86.40;;;;;;5073304;28;20258;-67
2021/11/13 03:12:45;;;;;;;912.20;828.03;;;22.50;88.10;;;;;;5073686;28;20229;-70
2021/11/13 03:15:15;;;;;;;911.33;826.83;;;22.70;87.50;;;;;;5074165;28;20168;-71
2021/11/13 03:17:42;;;;;;;1113.22;999.90;;;22.30;87.40;;;;;;5072833;28;20408;-72
2021/11/13 03:20:14;;;;;;;938.57;849.30;;;21.90;88.20;;;;;;5073821;28;21000;-70
2021/11/13 03:22:42;;;;;;;926.27;834.97;;;22.40;88.00;;;;;;5074211;28;20199;-71
2021/11/13 03:25:13;;;;;;;934.67;840.40;;;22.40;87.30;;;;;;5074323;28;20174;-68
2021/11/13 03:27:44;;;;;;;924.20;827.07;;;22.50;87.90;;;;;;5073698;28;20222;-69
2021/11/13 03:30:13;;;;;;;913.33;817.70;;;22.20;87.60;;;;;;5073630;28;20517;-69
2021/11/13 03:32:40;;;;;;;935.20;840.87;;;21.70;89.00;;;;;;5065982;28;20191;-72
2021/11/13 03:35:09;;;;;;;915.17;822.10;;;21.90;88.20;;;;;;5056957;28;20181;-70
2021/11/13 03:37:36;;;;;;;960.53;860.20;;;22.10;88.70;;;;;;5072708;28;20693;-71
2021/11/13 03:40:04;;;;;;;967.57;867.00;;;22.10;89.70;;;;;;5065287;28;20176;-71
2021/11/13 03:42:32;;;;;;;955.43;860.50;;;22.90;89.20;;;;;;5070402;28;20198;-70
2021/11/13 03:45:00;;;;;;;977.37;881.47;;;23.30;87.00;;;;;;5070799;28;20184;-73
2021/11/13 03:47:28;;;;;;;952.87;856.87;;;22.90;87.00;;;;;;5068605;28;20211;-72
2021/11/13 03:49:55;;;;;;;939.53;842.00;;;22.50;86.90;;;;;;5064454;28;20175;-69
2021/11/13 03:52:23;;;;;;;969.80;873.30;;;22.30;88.20;;;;;;5077266;28;20183;-68
2021/11/13 03:54:50;;;;;;;960.17;865.57;;;22.70;86.10;;;;;;5071573;28;20176;-74
2021/11/13 03:57:17;;;;;;;950.63;856.03;;;22.30;86.30;;;;;;5071188;28;20187;-71
2021/11/13 03:59:45;;;;;;;959.97;866.57;;;22.30;86.80;;;;;;5071562;28;20229;-70
2021/11/13 04:02:12;;;;;;;956.40;862.03;;;22.80;86.80;;;;;;5066580;28;20634;-72
2021/11/13 04:04:40;;;;;;;983.53;887.03;;;22.90;87.70;;;;;;5073380;28;20198;-71
2021/11/13 04:07:08;;;;;;;961.63;865.37;;;23.20;85.90;;;;;;5073204;28;20560;-69
2021/11/13 04:09:36;;;;;;;977.37;881.50;;;23.50;84.10;;;;;;5092175;28;20211;-71
2021/11/13 04:12:06;;;;;;;974.03;880.70;;;22.90;85.90;;;;;;5092918;28;20225;-70
2021/11/13 04:14:35;;;;;;;976.53;883.23;;;22.60;85.90;;;;;;5077763;28;20187;-74
2021/11/13 04:17:03;;;;;;;962.17;868.90;;;22.80;85.80;;;;;;5072883;28;20195;-68
2021/11/13 04:19:31;;;;;;;961.97;865.30;;;23.00;85.00;;;;;;5072756;28;20179;-73
2021/11/13 04:21:58;;;;;;;957.83;861.97;;;22.70;85.70;;;;;;5072812;28;20604;-73
2021/11/13 04:24:26;;;;;;;957.77;860.87;;;22.60;86.00;;;;;;5069502;28;20696;-76
2021/11/13 04:26:53;;;;;;;949.07;855.07;;;22.30;86.90;;;;;;5064003;28;20194;-71
2021/11/13 04:29:20;;;;;;;1060.97;820.47;;;21.80;87.20;;;;;;5072606;28;20187;-71
2021/11/13 04:31:48;;;;;;;1062.50;824.63;;;21.60;88.00;;;;;;5071725;28;20183;-69
2021/11/13 04:34:23;;;;;;;1056.50;813.93;;;21.40;88.40;;;;;;5072174;28;20233;-72
2021/11/13 04:36:54;;;;;;;1060.57;820.03;;;21.40;89.40;;;;;;5071841;28;20300;-70
2021/11/13 04:39:25;;;;;;;1052.47;800.33;;;21.20;90.00;;;;;;5072053;28;20168;-71
2021/11/13 04:41:54;;;;;;;1047.60;801.87;;;21.10;90.10;;;;;;5071703;28;20542;-68
2021/11/13 04:44:22;;;;;;;1048.90;803.47;;;21.20;90.10;;;;;;5071803;28;20553;-69
2021/11/13 04:46:49;;;;;;;1047.53;786.73;;;21.20;90.00;;;;;;5070741;28;20607;-71
2021/11/13 04:49:17;;;;;;;1047.50;787.03;;;21.00;90.50;;;;;;5070163;28;20660;-69
2021/11/13 04:51:44;;;;;;;1051.87;799.67;;;20.70;90.10;;;;;;5070449;28;20176;-68
2021/11/13 04:54:11;;;;;;;1036.33;768.33;;;20.70;90.30;;;;;;5072553;28;20190;-71
2021/11/13 04:56:39;;;;;;;1042.00;781.30;;;20.60;90.20;;;;;;5072032;28;20570;-67
2021/11/13 04:59:07;;;;;;;1040.57;773.03;;;20.70;90.20;;;;;;5071320;28;20186;-68
2021/11/13 05:01:34;;;;;;;1041.77;765.43;;;20.70;90.50;;;;;;5072429;28;20538;-69
2021/11/13 05:04:01;;;;;;;860.67;778.77;;;20.70;90.50;;;;;;5069184;28;20179;-70
2021/11/13 05:06:29;;;;;;;871.87;791.77;;;20.80;90.60;;;;;;5072412;28;20194;-71
2021/11/13 05:08:59;;;;;;;863.80;787.70;;;20.80;90.60;;;;;;5072174;28;20187;-72
2021/11/13 05:11:27;;;;;;;844.93;768.20;;;20.80;90.60;;;;;;5070846;28;20228;-73
2021/11/13 05:13:54;;;;;;;848.47;775.40;;;20.90;90.70;;;;;;5068847;28;20222;-71
2021/11/13 05:16:22;;;;;;;843.47;771.50;;;20.80;90.80;;;;;;5052247;28;20237;-68
2021/11/13 05:18:49;;;;;;;841.57;767.47;;;21.00;90.70;;;;;;5052362;28;20214;-69
2021/11/13 05:21:16;;;;;;;836.00;767.23;;;20.80;90.30;;;;;;5052203;28;20551;-71
2021/11/13 05:23:44;;;;;;;844.90;775.33;;;20.80;90.70;;;;;;5051158;28;20543;-69
2021/11/13 05:26:11;;;;;;;828.90;764.10;;;20.70;90.40;;;;;;5052365;28;20179;-70
2021/11/13 05:28:43;;;;;;;830.20;762.90;;;20.70;90.30;;;;;;5052128;28;20207;-69
2021/11/13 05:31:12;;;;;;;814.40;747.97;;;20.70;90.50;;;;;;5052021;28;20168;-70
2021/11/13 05:33:41;;;;;;;800.70;741.97;;;20.70;90.40;;;;;;5052006;28;20200;-69
2021/11/13 05:36:08;;;;;;;807.53;744.33;;;20.90;90.20;;;;;;5052269;28;20259;-70
2021/11/13 05:38:36;;;;;;;806.53;748.20;;;21.30;90.20;;;;;;5071526;28;20183;-72
2021/11/13 05:41:03;;;;;;;833.80;774.93;;;21.40;89.90;;;;;;5072349;28;20176;-69
2021/11/13 05:43:31;;;;;;;839.80;773.97;;;21.10;90.00;;;;;;5072206;28;20174;-70
2021/11/13 05:45:58;;;;;;;829.93;769.93;;;21.10;90.20;;;;;;5070489;28;20179;-69
2021/11/13 05:48:25;;;;;;;831.60;771.47;;;21.00;90.20;;;;;;5052079;28;20249;-71
2021/11/13 05:50:53;;;;;;;847.20;788.37;;;21.30;90.10;;;;;;5052157;28;20169;-69
2021/11/13 05:53:20;;;;;;;807.87;756.03;;;21.70;89.40;;;;;;5052086;28;20172;-68
2021/11/13 05:55:47;;;;;;;812.20;759.07;;;21.90;89.50;;;;;;5051689;28;20534;-68
2021/11/13 05:58:18;;;;;;;847.87;789.80;;;21.70;89.90;;;;;;5055225;28;20195;-70
2021/11/13 06:00:47;;;;;;;823.87;768.23;;;21.50;90.30;;;;;;5055519;28;20188;-69
2021/11/13 06:03:15;;;;;;;800.10;745.87;;;21.30;90.60;;;;;;5060640;28;20171;-70
2021/11/13 06:05:43;;;;;;;812.80;753.17;;;21.10;91.00;;;;;;5074192;28;20274;-74
2021/11/13 06:08:11;;;;;;;814.37;759.50;;;21.10;90.60;;;;;;5074696;28;20219;-71
2021/11/13 06:10:39;;;;;;;802.83;749.33;;;21.60;90.40;;;;;;5074524;28;20179;-73
2021/11/13 06:13:07;;;;;;;794.13;740.93;;;21.40;89.90;;;;;;5075201;28;20222;-68
2021/11/13 06:15:34;;;;;;;812.33;759.27;;;21.40;90.40;;;;;;5074906;28;20179;-72
2021/11/13 06:18:02;;;;;;;828.90;774.00;;;21.80;89.60;;;;;;5075072;28;20232;-72
2021/11/13 06:20:30;;;;;;;834.00;778.23;;;21.70;89.40;;;;;;5075144;28;20168;-71
2021/11/13 06:22:57;;;;;;;855.83;798.47;;;21.80;89.60;;;;;;5074234;28;20179;-68
2021/11/13 06:25:25;;;;;;;827.80;772.50;;;21.60;88.80;;;;;;5074318;28;20183;-71
2021/11/13 06:27:52;;;;;;;813.97;759.03;;;21.30;90.00;;;;;;5074921;28;20207;-71
2021/11/13 06:30:20;;;;;;;835.03;776.20;;;21.10;90.40;;;;;;5074402;28;20183;-69
2021/11/13 06:32:51;;;;;;;823.93;765.10;;;21.10;90.70;;;;;;5074574;28;20585;-71
2021/11/13 06:35:18;;;;;;;812.07;757.23;;;21.10;90.50;;;;;;5074521;28;20205;-68
2021/11/13 06:37:46;;;;;;;817.60;756.83;;;21.00;90.20;;;;;;5067706;28;20657;-74
2021/11/13 06:40:15;;;;;;;813.63;752.60;;;21.00;90.50;;;;;;5070411;28;20262;-71
2021/11/13 06:42:43;;;;;;;852.70;787.90;;;20.90;90.50;;;;;;5074122;28;20556;-72
2021/11/13 06:45:12;;;;;;;836.53;772.40;;;21.00;90.70;;;;;;5070844;28;20628;-72
2021/11/13 06:47:40;;;;;;;818.63;756.83;;;20.90;90.60;;;;;;5061128;28;20265;-70
2021/11/13 06:50:09;;;;;;;826.23;761.67;;;20.90;90.90;;;;;;5073842;28;20167;-73
2021/11/13 06:52:37;;;;;;;849.17;787.10;;;21.30;90.40;;;;;;5082547;28;20271;-73
2021/11/13 06:55:06;;;;;;;821.63;760.97;;;21.30;90.40;;;;;;5061078;28;20188;-68
2021/11/13 06:57:33;;;;;;;821.67;757.50;;;21.10;90.60;;;;;;5073732;28;20210;-68
2021/11/13 07:00:01;;;;;;;820.23;760.87;;;21.60;90.20;;;;;;5064877;28;20186;-69
2021/11/13 07:02:28;;;;;;;825.13;766.20;;;22.30;89.40;;;;;;5074038;28;20183;-72
2021/11/13 07:04:55;;;;;;;825.77;766.93;;;22.10;89.10;;;;;;5071216;28;20187;-72
2021/11/13 07:07:23;;;;;;;828.83;766.67;;;21.50;90.20;;;;;;5058703;28;20218;-75
2021/11/13 07:09:50;;;;;;;844.87;782.57;;;21.10;90.50;;;;;;5071923;28;20181;-72
2021/11/13 07:12:17;;;;;;;847.50;779.20;;;20.80;90.80;;;;;;5072814;28;20627;-70
2021/11/13 07:14:45;;;;;;;835.17;772.47;;;20.60;91.20;;;;;;5073635;28;20629;-75
2021/11/13 07:17:12;;;;;;;831.57;769.03;;;20.40;91.20;;;;;;5074040;28;20182;-71
2021/11/13 07:19:41;;;;;;;834.23;771.23;;;20.30;91.40;;;;;;5072956;28;20183;-70
2021/11/13 07:22:08;;;;;;;801.87;739.50;;;20.20;91.70;;;;;;5073938;28;20184;-69
2021/11/13 07:24:35;;;;;;;795.07;736.60;;;20.20;91.80;;;;;;5072623;28;20542;-70
2021/11/13 07:27:03;;;;;;;809.83;747.07;;;20.20;91.90;;;;;;5072066;28;20289;-71
2021/11/13 07:29:30;;;;;;;791.20;734.73;;;20.10;92.00;;;;;;5073592;28;20263;-71
2021/11/13 07:31:58;;;;;;;810.40;751.30;;;20.10;91.10;;;;;;5072885;28;20187;-73
2021/11/13 07:34:25;;;;;;;809.70;748.17;;;20.00;91.30;;;;;;5073211;28;20181;-68
2021/11/13 07:36:52;;;;;;;803.43;737.53;;;20.10;91.40;;;;;;5073731;28;20179;-68
2021/11/13 07:39:20;;;;;;;799.57;734.50;;;20.00;91.60;;;;;;5073461;28;20262;-74
2021/11/13 07:41:47;;;;;;;808.17;737.63;;;20.00;91.60;;;;;;5072842;28;20175;-73
2021/11/13 07:44:15;;;;;;;820.87;755.97;;;19.90;91.50;;;;;;5073092;28;20211;-71
2021/11/13 07:46:42;;;;;;;801.90;738.37;;;19.90;91.80;;;;;;5069303;28;20301;-71
2021/11/13 07:49:10;;;;;;;777.97;717.37;;;19.90;91.90;;;;;;5073267;28;20190;-71
2021/11/13 07:51:38;;;;;;;787.90;728.03;;;19.90;92.00;;;;;;5053706;28;20168;-71
2021/11/13 07:54:06;;;;;;;775.73;715.87;;;19.90;92.10;;;;;;5053543;28;20180;-68
2021/11/13 07:56:33;;;;;;;773.93;717.97;;;19.90;92.00;;;;;;5068972;28;20546;-74
2021/11/13 07:59:01;;;;;;;781.27;718.83;;;19.80;92.10;;;;;;5072937;28;20224;-68
2021/11/13 08:01:28;;;;;;;787.17;729.17;;;19.80;92.30;;;;;;5073243;28;20553;-71
2021/11/13 08:03:55;;;;;;;780.03;723.73;;;19.80;92.40;;;;;;5072956;28;20607;-66
2021/11/13 08:06:23;;;;;;;770.53;713.67;;;19.70;92.50;;;;;;5066431;28;20179;-70
2021/11/13 08:08:50;;;;;;;767.03;707.93;;;19.60;92.70;;;;;;5066668;28;20219;-68
2021/11/13 08:11:18;;;;;;;786.43;729.83;;;19.50;92.80;;;;;;5072415;28;20187;-69
2021/11/13 08:13:46;;;;;;;788.03;726.83;;;19.50;93.00;;;;;;5072467;28;20253;-71
2021/11/13 08:16:14;;;;;;;773.77;712.33;;;19.50;93.00;;;;;;5061578;28;20172;-70
2021/11/13 08:18:41;;;;;;;796.20;733.63;;;19.40;93.10;;;;;;5053194;28;20243;-68
2021/11/13 08:21:08;;;;;;;784.60;724.23;;;19.40;93.20;;;;;;5061762;28;20532;-71
2021/11/13 08:23:36;;;;;;;769.20;707.37;;;19.30;93.30;;;;;;5072477;28;20626;-69
2021/11/13 08:26:03;;;;;;;760.23;701.20;;;19.20;93.40;;;;;;5070463;28;20775;-68
2021/11/13 08:28:31;;;;;;;759.97;700.27;;;19.20;93.60;;;;;;5072847;28;20239;-70
2021/11/13 08:30:59;;;;;;;781.37;715.93;;;19.20;93.90;;;;;;5070473;28;20667;-70
2021/11/13 08:33:28;;;;;;;801.67;738.30;;;19.20;94.10;;;;;;5072782;28;20171;-70
2021/11/13 08:35:56;;;;;;;786.53;721.33;;;19.10;94.70;;;;;;5072532;28;20172;-72
2021/11/13 08:38:24;;;;;;;782.63;716.87;;;19.00;95.50;;;;;;5071210;28;20183;-72
2021/11/13 08:40:54;;;;;;;775.27;713.70;;;18.80;95.50;;;;;;5072526;28;20171;-72
2021/11/13 08:43:22;;;;;;;762.43;700.13;;;18.80;96.40;;;;;;5072696;28;20202;-70
2021/11/13 08:45:50;;;;;;;753.63;696.43;;;18.70;96.80;;;;;;5072046;28;20175;-71
2021/11/13 08:48:18;;;;;;;789.17;726.97;;;18.50;97.60;;;;;;5065860;28;20669;-67
2021/11/13 08:50:46;;;;;;;752.37;693.37;;;18.40;97.40;;;;;;5072512;28;20175;-69
2021/11/13 08:53:14;;;;;;;750.07;688.57;;;18.40;97.90;;;;;;5072082;28;20210;-71
2021/11/13 08:55:43;;;;;;;746.57;691.07;;;18.30;97.70;;;;;;5069111;28;20179;-69
2021/11/13 08:58:11;;;;;;;755.30;695.33;;;18.20;98.40;;;;;;5072272;28;20254;-70
2021/11/13 09:00:49;;;;;;;757.23;691.90;;;18.20;99.70;;;;;;5072611;28;20179;-69
2021/11/13 09:03:28;;;;;;;743.30;679.43;;;18.10;99.70;;;;;;5072806;28;20167;-72
2021/11/13 09:05:58;;;;;;;727.93;667.70;;;18.00;99.50;;;;;;5067178;28;20181;-69
2021/11/13 09:08:26;;;;;;;741.70;677.17;;;18.00;99.90;;;;;;5070230;28;20303;-71
2021/11/13 09:10:56;;;;;;;736.60;670.03;;;18.00;99.90;;;;;;5071908;28;20593;-70
2021/11/13 09:13:25;;;;;;;720.50;663.20;;;17.80;99.90;;;;;;5069398;28;20210;-70
2021/11/13 09:15:54;;;;;;;898.80;831.25;;;17.80;99.90;;;;;;5070650;28;20400;-71
2021/11/13 09:18:21;;;;;;;725.20;668.13;;;17.80;99.90;;;;;;5071628;28;20189;-69
2021/11/13 09:20:48;;;;;;;697.67;641.00;;;17.70;99.90;;;;;;5072124;28;20520;-69
2021/11/13 09:23:16;;;;;;;698.63;641.77;;;17.60;99.90;;;;;;5071821;28;20228;-71
2021/11/13 09:25:44;;;;;;;702.57;646.23;;;17.60;99.90;;;;;;5071083;28;20580;-68
2021/11/13 09:28:13;;;;;;;706.30;649.80;;;17.50;99.90;;;;;;5070816;28;20611;-70
2021/11/13 09:30:41;;;;;;;699.77;644.17;;;17.50;99.90;;;;;;5071888;28;20202;-68
2021/11/13 09:33:10;;;;;;;697.93;644.13;;;17.50;99.90;;;;;;5075292;28;20202;-68
2021/11/13 09:35:39;;;;;;;674.13;621.93;;;17.40;99.90;;;;;;5075853;28;20529;-69
2021/11/13 09:38:07;;;;;;;676.17;626.00;;;17.40;99.90;;;;;;5073688;28;20688;-70
2021/11/13 09:40:35;;;;;;;681.70;628.93;;;17.30;99.90;;;;;;5075938;28;20183;-69
2021/11/13 09:43:05;;;;;;;687.73;633.43;;;17.30;99.90;;;;;;5075607;28;20186;-72
2021/11/13 09:45:33;;;;;;;692.33;637.07;;;17.20;99.90;;;;;;5076114;28;20174;-69
2021/11/13 09:48:02;;;;;;;689.70;634.30;;;17.10;99.90;;;;;;5069703;28;20560;-68
2021/11/13 09:50:34;;;;;;;675.33;624.40;;;17.00;99.90;;;;;;5075384;28;20178;-67
2021/11/13 09:53:03;;;;;;;690.50;633.53;;;17.00;99.90;;;;;;5075817;28;20507;-68
2021/11/13 09:55:31;;;;;;;686.10;626.63;;;17.00;99.90;;;;;;5075492;28;20184;-69
2021/11/13 09:57:59;;;;;;;674.47;614.67;;;16.90;99.90;;;;;;5075066;28;20170;-71
2021/11/13 10:00:29;;;;;;;649.43;593.53;;;16.90;99.90;;;;;;5075679;28;20304;-69
2021/11/13 10:02:57;;;;;;;662.43;603.93;;;17.00;99.90;;;;;;5074325;28;20258;-70
2021/11/13 10:05:25;;;;;;;665.17;605.97;;;17.00;99.90;;;;;;5074460;28;20210;-71
2021/11/13 10:07:53;;;;;;;689.17;629.53;;;17.00;99.90;;;;;;5074905;28;20208;-70
2021/11/13 10:10:38;;;;;;;677.60;621.93;;;17.10;99.90;;;;;;5073296;28;20190;-69
2021/11/13 10:13:32;;;;;;;656.10;604.37;;;17.10;99.90;;;;;;5075087;28;20275;-70
2021/11/13 10:16:10;;;;;;;653.00;600.13;;;17.20;99.90;;;;;;5064658;28;20203;-70
2021/11/13 10:18:42;;;;;;;652.03;599.33;;;17.20;99.90;;;;;;5065601;28;20182;-69
2021/11/13 10:21:13;;;;;;;669.10;617.30;;;17.30;99.90;;;;;;5065437;28;20182;-70
2021/11/13 10:23:52;;;;;;;658.70;606.50;;;17.30;99.90;;;;;;5074558;28;20212;-70
2021/11/13 10:26:26;;;;;;;676.57;620.77;;;17.40;99.90;;;;;;5072403;28;20726;-69
2021/11/13 10:28:56;;;;;;;692.20;632.87;;;17.30;99.90;;;;;;5065787;28;20214;-67
2021/11/13 10:31:35;;;;;;;703.03;641.27;;;17.40;99.90;;;;;;5073153;28;20199;-68
2021/11/13 10:34:06;;;;;;;685.70;623.53;;;17.40;99.90;;;;;;5073404;28;20273;-68
2021/11/13 10:36:40;;;;;;;682.87;624.13;;;17.50;99.90;;;;;;5074047;28;20171;-69
2021/11/13 10:39:15;;;;;;;703.80;642.30;;;17.50;99.90;;;;;;5074119;28;20641;-69
2021/11/13 10:41:52;;;;;;;697.23;634.77;;;17.50;99.90;;;;;;5073992;28;20184;-69
2021/11/13 10:44:41;;;;;;;690.67;625.67;;;17.50;99.90;;;;;;5074287;28;20175;-70
2021/11/13 10:47:13;;;;;;;702.80;638.83;;;17.50;99.90;;;;;;5073916;28;20232;-68
2021/11/13 10:49:40;;;;;;;702.53;636.53;;;17.50;99.90;;;;;;5070504;28;20213;-69
2021/11/13 10:52:09;;;;;;;682.07;617.00;;;17.40;99.90;;;;;;5074083;28;20186;-69
2021/11/13 10:54:38;;;;;;;689.03;622.33;;;17.30;99.90;;;;;;5072052;28;20187;-66
2021/11/13 10:57:07;;;;;;;695.10;631.23;;;17.20;99.90;;;;;;5061116;28;20180;-66
2021/11/13 10:59:42;;;;;;;675.03;613.57;;;17.00;99.90;;;;;;5054676;28;20168;-69
2021/11/13 11:02:16;;;;;;;668.73;606.37;;;16.80;99.90;;;;;;5072620;28;20249;-69
2021/11/13 11:04:47;;;;;;;663.50;601.53;;;16.80;99.90;;;;;;5074359;28;20280;-71
2021/11/13 11:07:23;;;;;;;673.17;612.80;;;16.70;99.90;;;;;;5069195;28;20293;-69
2021/11/13 11:10:04;;;;;;;672.90;613.30;;;16.70;99.90;;;;;;5078774;28;20189;-71
2021/11/13 11:12:34;;;;;;;662.73;606.17;;;16.70;99.90;;;;;;5072984;28;20230;-76
2021/11/13 11:15:08;;;;;;;661.87;603.17;;;16.70;99.90;;;;;;5073390;28;20190;-72
2021/11/13 11:17:35;;;;;;;675.37;615.17;;;16.80;99.90;;;;;;5074339;28;20180;-70
2021/11/13 11:20:05;;;;;;;659.00;597.43;;;16.80;99.90;;;;;;5074678;28;20188;-70
2021/11/13 11:22:33;;;;;;;653.77;598.57;;;16.80;99.90;;;;;;5074093;28;20187;-72
2021/11/13 11:25:06;;;;;;;665.53;605.60;;;16.80;99.90;;;;;;5074226;28;20173;-68
2021/11/13 11:27:42;;;;;;;656.83;595.53;;;16.90;99.90;;;;;;5073935;28;20213;-71
2021/11/13 11:30:21;;;;;;;664.77;605.83;;;16.90;99.90;;;;;;5074008;28;20205;-71
2021/11/13 11:32:58;;;;;;;655.87;599.10;;;16.90;99.90;;;;;;5057330;28;20175;-71
2021/11/13 11:35:39;;;;;;;662.13;602.57;;;16.90;99.90;;;;;;5073621;28;20186;-72
2021/11/13 11:38:12;;;;;;;670.67;610.50;;;16.90;99.90;;;;;;5074056;28;20183;-67
2021/11/13 11:40:48;;;;;;;661.60;601.60;;;16.90;99.90;;;;;;5074013;28;20200;-69
2021/11/13 11:43:16;;;;;;;650.70;590.03;;;16.90;99.90;;;;;;5073834;28;20177;-69
2021/11/13 11:45:45;;;;;;;682.90;619.10;;;16.90;99.90;;;;;;5073207;28;20519;-71
2021/11/13 11:48:15;;;;;;;678.07;618.77;;;16.90;99.90;;;;;;5072741;28;20234;-70
2021/11/13 11:50:46;;;;;;;682.90;621.53;;;16.90;99.90;;;;;;5073984;28;20185;-70
2021/11/13 11:53:15;;;;;;;683.50;620.80;;;16.90;99.90;;;;;;5073434;28;20209;-70
2021/11/13 11:55:45;;;;;;;685.83;621.87;;;16.90;99.90;;;;;;5072577;28;20170;-71
2021/11/13 11:58:16;;;;;;;678.17;613.97;;;16.90;99.90;;;;;;5073036;28;20204;-70
2021/11/13 12:00:45;;;;;;;680.10;616.13;;;16.90;99.90;;;;;;5073561;28;20265;-70
2021/11/13 12:03:23;;;;;;;687.60;621.90;;;16.90;99.90;;;;;;5072857;28;20180;-68
2021/11/13 12:05:52;;;;;;;665.60;600.90;;;16.90;99.90;;;;;;5073468;28;20173;-68
2021/11/13 12:08:23;;;;;;;675.70;613.50;;;16.80;99.90;;;;;;5073467;28;20226;-71
2021/11/13 12:10:53;;;;;;;684.63;617.23;;;16.90;99.90;;;;;;5058224;28;20245;-69
2021/11/13 12:13:31;;;;;;;680.13;613.87;;;16.80;99.90;;;;;;5069522;28;20222;-70
2021/11/13 12:16:01;;;;;;;665.17;602.03;;;16.80;99.90;;;;;;5073149;28;20182;-68
2021/11/13 12:18:34;;;;;;;672.50;605.77;;;16.80;99.90;;;;;;5072529;28;20548;-72